sensor_id;sensor_type;location;lat;lon;timestamp;pressure;altitude;pressure_sealevel;temperature;humidity
80749;BME280;70145;53.746;9.970;2023-08-01T00:02:21;99468.16;;;15.64;62.84
80749;BME280;70145;53.746;9.970;2023-08-01T00:04:47;99456.47;;;15.64;62.95
80749;BME280;70145;53.746;9.970;2023-08-01T00:07:12;99447.28;;;15.65;62.96
80749;BME280;70145;53.746;9.970;2023-08-01T00:09:37;99443.09;;;15.62;63.15
80749;BME280;70145;53.746;9.970;2023-08-01T00:12:03;99444.78;;;15.63;63.02
80749;BME280;70145;53.746;9.970;2023-08-01T00:14:28;99443.09;;;15.62;62.81
80749;BME280;70145;53.746;9.970;2023-08-01T00:16:54;99425.13;;;15.61;62.87
80749;BME280;70145;53.746;9.970;2023-08-01T00:19:19;99409.06;;;15.60;62.90
80749;BME280;70145;53.746;9.970;2023-08-01T00:21:44;99408.19;;;15.59;62.83
80749;BME280;70145;53.746;9.970;2023-08-01T00:24:10;99406.53;;;15.58;63.09
80749;BME280;70145;53.746;9.970;2023-08-01T00:26:35;99398.78;;;15.55;62.76
80749;BME280;70145;53.746;9.970;2023-08-01T00:29:00;99397.94;;;15.55;62.89
80749;BME280;70145;53.746;9.970;2023-08-01T00:31:26;99398.13;;;15.53;63.19
80749;BME280;70145;53.746;9.970;2023-08-01T00:33:51;99391.22;;;15.51;62.98
80749;BME280;70145;53.746;9.970;2023-08-01T00:36:16;99399.75;;;15.48;62.85
80749;BME280;70145;53.746;9.970;2023-08-01T00:38:42;99389.94;;;15.47;63.16
80749;BME280;70145;53.746;9.970;2023-08-01T00:41:09;99391.78;;;15.46;63.23
80749;BME280;70145;53.746;9.970;2023-08-01T00:43:34;99377.75;;;15.43;63.36
80749;BME280;70145;53.746;9.970;2023-08-01T00:46:00;99377.31;;;15.39;63.29
80749;BME280;70145;53.746;9.970;2023-08-01T00:48:28;99380.22;;;15.38;63.34
80749;BME280;70145;53.746;9.970;2023-08-01T00:50:54;99366.84;;;15.36;63.23
80749;BME280;70145;53.746;9.970;2023-08-01T00:53:21;99367.25;;;15.33;63.17
80749;BME280;70145;53.746;9.970;2023-08-01T00:55:47;99358.44;;;15.31;63.26
80749;BME280;70145;53.746;9.970;2023-08-01T00:58:13;99356.97;;;15.29;63.21
80749;BME280;70145;53.746;9.970;2023-08-01T01:00:38;99346.31;;;15.27;63.28
80749;BME280;70145;53.746;9.970;2023-08-01T01:03:04;99350.06;;;15.26;63.42
80749;BME280;70145;53.746;9.970;2023-08-01T01:05:35;99350.06;;;15.26;63.29
80749;BME280;70145;53.746;9.970;2023-08-01T01:08:02;99343.31;;;15.22;63.13
80749;BME280;70145;53.746;9.970;2023-08-01T01:10:28;99339.78;;;15.22;63.13
80749;BME280;70145;53.746;9.970;2023-08-01T01:12:54;99336.59;;;15.18;63.30
80749;BME280;70145;53.746;9.970;2023-08-01T01:15:20;99333.28;;;15.16;62.98
80749;BME280;70145;53.746;9.970;2023-08-01T01:17:45;99335.13;;;15.16;63.22
80749;BME280;70145;53.746;9.970;2023-08-01T01:20:11;99334.28;;;15.15;63.11
80749;BME280;70145;53.746;9.970;2023-08-01T01:22:36;99325.53;;;15.13;63.19
80749;BME280;70145;53.746;9.970;2023-08-01T01:25:03;99326.91;;;15.09;63.07
80749;BME280;70145;53.746;9.970;2023-08-01T01:27:29;99317.09;;;15.08;63.16
80749;BME280;70145;53.746;9.970;2023-08-01T01:29:55;99316.25;;;15.08;63.15
80749;BME280;70145;53.746;9.970;2023-08-01T01:32:21;99313.09;;;15.04;63.29
80749;BME280;70145;53.746;9.970;2023-08-01T01:34:47;99306.00;;;15.03;63.38
80749;BME280;70145;53.746;9.970;2023-08-01T01:37:13;99301.78;;;15.01;63.21
80749;BME280;70145;53.746;9.970;2023-08-01T01:39:38;99307.22;;;15.01;63.20
80749;BME280;70145;53.746;9.970;2023-08-01T01:42:04;99298.25;;;15.00;63.24
80749;BME280;70145;53.746;9.970;2023-08-01T01:44:29;99306.59;;;14.99;63.53
80749;BME280;70145;53.746;9.970;2023-08-01T01:46:54;99293.22;;;14.97;63.29
80749;BME280;70145;53.746;9.970;2023-08-01T01:49:20;99288.81;;;14.96;63.31
80749;BME280;70145;53.746;9.970;2023-08-01T01:51:45;99281.72;;;14.95;63.17
80749;BME280;70145;53.746;9.970;2023-08-01T01:54:10;99282.91;;;14.93;63.09
80749;BME280;70145;53.746;9.970;2023-08-01T01:56:35;99277.50;;;14.93;63.34
80749;BME280;70145;53.746;9.970;2023-08-01T01:59:01;99260.38;;;14.92;63.34
80749;BME280;70145;53.746;9.970;2023-08-01T02:01:27;99261.44;;;14.91;63.32
80749;BME280;70145;53.746;9.970;2023-08-01T02:03:52;99267.88;;;14.90;63.14
80749;BME280;70145;53.746;9.970;2023-08-01T02:06:18;99258.72;;;14.91;63.29
80749;BME280;70145;53.746;9.970;2023-08-01T02:08:43;99250.59;;;14.91;63.31
80749;BME280;70145;53.746;9.970;2023-08-01T02:11:08;99257.03;;;14.90;63.13
80749;BME280;70145;53.746;9.970;2023-08-01T02:13:33;99254.16;;;14.92;63.16
80749;BME280;70145;53.746;9.970;2023-08-01T02:15:59;99245.34;;;14.90;63.38
80749;BME280;70145;53.746;9.970;2023-08-01T02:18:24;99248.25;;;14.88;63.38
80749;BME280;70145;53.746;9.970;2023-08-01T02:20:50;99245.75;;;14.87;63.27
80749;BME280;70145;53.746;9.970;2023-08-01T02:23:15;99244.88;;;14.86;63.34
80749;BME280;70145;53.746;9.970;2023-08-01T02:25:41;99241.56;;;14.84;63.57
80749;BME280;70145;53.746;9.970;2023-08-01T02:28:07;99240.69;;;14.84;63.62
80749;BME280;70145;53.746;9.970;2023-08-01T02:30:33;99242.38;;;14.85;63.63
80749;BME280;70145;53.746;9.970;2023-08-01T02:32:58;99246.97;;;14.84;63.73
80749;BME280;70145;53.746;9.970;2023-08-01T02:55:33;99216.56;;;14.68;64.39
80749;BME280;70145;53.746;9.970;2023-08-01T02:57:58;99220.13;;;14.68;64.49
80749;BME280;70145;53.746;9.970;2023-08-01T03:00:24;99212.81;;;14.69;64.75
80749;BME280;70145;53.746;9.970;2023-08-01T03:02:51;99211.59;;;14.71;64.86
80749;BME280;70145;53.746;9.970;2023-08-01T03:05:16;99215.97;;;14.72;64.84
80749;BME280;70145;53.746;9.970;2023-08-01T03:07:42;99207.84;;;14.72;64.91
80749;BME280;70145;53.746;9.970;2023-08-01T03:10:08;99210.19;;;14.75;64.93
80749;BME280;70145;53.746;9.970;2023-08-01T03:12:33;99202.03;;;14.75;64.93
80749;BME280;70145;53.746;9.970;2023-08-01T03:14:58;99201.84;;;14.77;64.99
80749;BME280;70145;53.746;9.970;2023-08-01T03:17:24;99208.75;;;14.79;65.02
80749;BME280;70145;53.746;9.970;2023-08-01T03:19:49;99201.28;;;14.81;64.81
80749;BME280;70145;53.746;9.970;2023-08-01T03:22:15;99198.56;;;14.81;65.03
80749;BME280;70145;53.746;9.970;2023-08-01T03:24:40;99195.66;;;14.83;65.05
80749;BME280;70145;53.746;9.970;2023-08-01T03:27:05;99192.75;;;14.84;65.05
80749;BME280;70145;53.746;9.970;2023-08-01T03:29:31;99187.34;;;14.84;65.19
80749;BME280;70145;53.746;9.970;2023-08-01T03:31:56;99190.69;;;14.86;65.00
80749;BME280;70145;53.746;9.970;2023-08-01T03:34:21;99192.38;;;14.87;64.99
80749;BME280;70145;53.746;9.970;2023-08-01T03:36:47;99190.47;;;14.88;65.08
80749;BME280;70145;53.746;9.970;2023-08-01T03:39:12;99186.75;;;14.89;65.10
80749;BME280;70145;53.746;9.970;2023-08-01T03:41:40;99188.22;;;14.91;65.04
80749;BME280;70145;53.746;9.970;2023-08-01T03:44:05;99183.66;;;14.92;65.02
80749;BME280;70145;53.746;9.970;2023-08-01T03:46:31;99188.03;;;14.93;65.11
80749;BME280;70145;53.746;9.970;2023-08-01T03:48:56;99191.56;;;14.93;65.05
80749;BME280;70145;53.746;9.970;2023-08-01T03:51:21;99184.13;;;14.95;64.77
80749;BME280;70145;53.746;9.970;2023-08-01T03:53:47;99179.56;;;14.96;65.02
80749;BME280;70145;53.746;9.970;2023-08-01T03:56:13;99175.81;;;14.97;65.21
80749;BME280;70145;53.746;9.970;2023-08-01T03:58:38;99179.56;;;14.96;65.15
80749;BME280;70145;53.746;9.970;2023-08-01T04:01:03;99173.09;;;14.97;64.85
80749;BME280;70145;53.746;9.970;2023-08-01T04:03:31;99174.13;;;14.96;65.17
80749;BME280;70145;53.746;9.970;2023-08-01T04:05:57;99167.47;;;14.98;65.14
80749;BME280;70145;53.746;9.970;2023-08-01T04:08:22;99171.84;;;14.99;65.13
80749;BME280;70145;53.746;9.970;2023-08-01T04:10:48;99169.13;;;14.99;65.08
80749;BME280;70145;53.746;9.970;2023-08-01T04:13:14;99173.56;;;15.00;65.27
80749;BME280;70145;53.746;9.970;2023-08-01T04:15:40;99176.25;;;15.00;65.18
80749;BME280;70145;53.746;9.970;2023-08-01T04:18:05;99173.56;;;15.00;65.32
80749;BME280;70145;53.746;9.970;2023-08-01T04:20:30;99177.94;;;15.01;65.15
80749;BME280;70145;53.746;9.970;2023-08-01T04:22:56;99176.25;;;15.00;65.17
80749;BME280;70145;53.746;9.970;2023-08-01T04:25:22;99179.59;;;15.02;65.09
80749;BME280;70145;53.746;9.970;2023-08-01T04:27:50;99175.88;;;15.03;65.15
80749;BME280;70145;53.746;9.970;2023-08-01T04:30:15;99180.44;;;15.03;65.03
80749;BME280;70145;53.746;9.970;2023-08-01T04:32:40;99180.44;;;15.03;65.26
80749;BME280;70145;53.746;9.970;2023-08-01T04:35:06;99184.00;;;15.03;65.22
80749;BME280;70145;53.746;9.970;2023-08-01T04:37:31;99174.81;;;15.04;65.19
80749;BME280;70145;53.746;9.970;2023-08-01T04:39:57;99169.59;;;15.03;65.15
80749;BME280;70145;53.746;9.970;2023-08-01T04:42:22;99172.13;;;15.04;65.30
80749;BME280;70145;53.746;9.970;2023-08-01T04:44:47;99170.44;;;15.03;65.47
80749;BME280;70145;53.746;9.970;2023-08-01T04:47:13;99168.75;;;15.02;65.25
80749;BME280;70145;53.746;9.970;2023-08-01T04:49:38;99168.94;;;15.01;65.51
80749;BME280;70145;53.746;9.970;2023-08-01T04:52:04;99170.44;;;15.03;65.16
80749;BME280;70145;53.746;9.970;2023-08-01T04:54:29;99166.03;;;15.02;65.30
80749;BME280;70145;53.746;9.970;2023-08-01T04:56:55;99178.59;;;15.03;65.26
80749;BME280;70145;53.746;9.970;2023-08-01T04:59:20;99175.88;;;15.03;65.42
80749;BME280;70145;53.746;9.970;2023-08-01T05:01:45;99177.72;;;15.03;65.07
80749;BME280;70145;53.746;9.970;2023-08-01T05:04:10;99176.88;;;15.02;65.39
80749;BME280;70145;53.746;9.970;2023-08-01T05:06:36;99175.88;;;15.03;65.04
80749;BME280;70145;53.746;9.970;2023-08-01T05:09:01;99169.41;;;15.04;65.29
80749;BME280;70145;53.746;9.970;2023-08-01T05:11:27;99173.78;;;15.05;65.25
80749;BME280;70145;53.746;9.970;2023-08-01T05:13:52;99166.69;;;15.04;65.23
80749;BME280;70145;53.746;9.970;2023-08-01T05:16:17;99165.03;;;15.03;65.49
80749;BME280;70145;53.746;9.970;2023-08-01T05:18:43;99173.16;;;15.03;65.09
80749;BME280;70145;53.746;9.970;2023-08-01T05:21:08;99173.16;;;15.03;65.21
80749;BME280;70145;53.746;9.970;2023-08-01T05:23:33;99173.78;;;15.05;65.17
80749;BME280;70145;53.746;9.970;2023-08-01T05:25:59;99174.63;;;15.06;65.22
80749;BME280;70145;53.746;9.970;2023-08-01T05:28:24;99174.44;;;15.07;65.08
80749;BME280;70145;53.746;9.970;2023-08-01T05:30:49;99173.78;;;15.05;64.71
80749;BME280;70145;53.746;9.970;2023-08-01T05:33:15;99176.31;;;15.07;65.01
80749;BME280;70145;53.746;9.970;2023-08-01T05:35:40;99169.00;;;15.07;65.12
80749;BME280;70145;53.746;9.970;2023-08-01T05:38:05;99176.31;;;15.07;65.08
80749;BME280;70145;53.746;9.970;2023-08-01T05:40:31;99165.47;;;15.07;65.08
80749;BME280;70145;53.746;9.970;2023-08-01T05:42:56;99169.00;;;15.07;65.17
80749;BME280;70145;53.746;9.970;2023-08-01T05:45:21;99164.63;;;15.06;65.03
80749;BME280;70145;53.746;9.970;2023-08-01T05:47:47;99166.50;;;15.06;65.03
80749;BME280;70145;53.746;9.970;2023-08-01T05:50:12;99171.06;;;15.05;65.06
80749;BME280;70145;53.746;9.970;2023-08-01T05:52:37;99172.97;;;15.05;65.19
80749;BME280;70145;53.746;9.970;2023-08-01T05:55:03;99173.16;;;15.03;65.07
80749;BME280;70145;53.746;9.970;2023-08-01T05:57:29;99174.16;;;15.02;65.14
80749;BME280;70145;53.746;9.970;2023-08-01T05:59:54;99171.25;;;15.04;65.09
80749;BME280;70145;53.746;9.970;2023-08-01T06:02:19;99173.56;;;15.00;65.24
80749;BME280;70145;53.746;9.970;2023-08-01T06:04:45;99184.59;;;14.99;65.17
80749;BME280;70145;53.746;9.970;2023-08-01T06:07:10;99177.09;;;15.01;64.80
80749;BME280;70145;53.746;9.970;2023-08-01T06:09:35;99174.16;;;15.02;65.08
80749;BME280;70145;53.746;9.970;2023-08-01T06:12:00;99169.59;;;15.03;65.10
80749;BME280;70145;53.746;9.970;2023-08-01T06:14:26;99173.16;;;15.03;65.16
80749;BME280;70145;53.746;9.970;2023-08-01T06:16:51;99172.13;;;15.04;65.32
80749;BME280;70145;53.746;9.970;2023-08-01T06:22:34;99165.47;;;15.07;65.22
80749;BME280;70145;53.746;9.970;2023-08-01T06:28:21;99171.34;;;15.10;65.28
80749;BME280;70145;53.746;9.970;2023-08-01T06:30:46;99164.69;;;15.13;65.59
80749;BME280;70145;53.746;9.970;2023-08-01T06:33:12;99175.31;;;15.14;65.69
80749;BME280;70145;53.746;9.970;2023-08-01T06:35:37;99174.47;;;15.14;65.61
80749;BME280;70145;53.746;9.970;2023-08-01T06:38:02;99180.09;;;15.12;65.86
80749;BME280;70145;53.746;9.970;2023-08-01T06:40:27;99172.22;;;15.17;65.53
80749;BME280;70145;53.746;9.970;2023-08-01T06:42:53;99170.56;;;15.16;65.55
80749;BME280;70145;53.746;9.970;2023-08-01T06:45:18;99178.31;;;15.19;65.49
80749;BME280;70145;53.746;9.970;2023-08-01T06:47:43;99184.53;;;15.20;65.57
80749;BME280;70145;53.746;9.970;2023-08-01T06:50:09;99188.72;;;15.22;65.39
80749;BME280;70145;53.746;9.970;2023-08-01T06:52:35;99185.19;;;15.22;65.45
80749;BME280;70145;53.746;9.970;2023-08-01T06:55:00;99187.72;;;15.23;65.88
80749;BME280;70145;53.746;9.970;2023-08-01T06:57:25;99188.91;;;15.21;65.52
80749;BME280;70145;53.746;9.970;2023-08-01T06:59:50;99182.50;;;15.22;65.41
80749;BME280;70145;53.746;9.970;2023-08-01T07:02:16;99183.09;;;15.24;65.30
80749;BME280;70145;53.746;9.970;2023-08-01T07:04:41;99191.69;;;15.27;65.44
80749;BME280;70145;53.746;9.970;2023-08-01T07:07:06;99185.22;;;15.28;65.15
80749;BME280;70145;53.746;9.970;2023-08-01T07:09:33;99187.31;;;15.26;65.14
80749;BME280;70145;53.746;9.970;2023-08-01T07:11:59;99196.28;;;15.27;65.32
80749;BME280;70145;53.746;9.970;2023-08-01T07:14:24;99192.34;;;15.29;65.30
80749;BME280;70145;53.746;9.970;2023-08-01T07:16:49;99194.41;;;15.27;65.20
80749;BME280;70145;53.746;9.970;2023-08-01T07:19:14;99195.88;;;15.30;65.05
80749;BME280;70145;53.746;9.970;2023-08-01T07:21:40;99195.69;;;15.31;64.70
80749;BME280;70145;53.746;9.970;2023-08-01T07:24:05;99197.38;;;15.32;64.91
80749;BME280;70145;53.746;9.970;2023-08-01T07:26:31;99198.00;;;15.34;64.73
80749;BME280;70145;53.746;9.970;2023-08-01T07:28:56;99199.69;;;15.35;64.78
80749;BME280;70145;53.746;9.970;2023-08-01T07:31:21;99199.44;;;15.30;64.53
80749;BME280;70145;53.746;9.970;2023-08-01T07:33:47;99196.16;;;15.35;64.73
80749;BME280;70145;53.746;9.970;2023-08-01T07:36:12;99202.38;;;15.35;64.56
80749;BME280;70145;53.746;9.970;2023-08-01T07:38:37;99199.69;;;15.35;64.52
80749;BME280;70145;53.746;9.970;2023-08-01T07:41:04;99193.03;;;15.38;64.36
80749;BME280;70145;53.746;9.970;2023-08-01T07:43:29;99198.28;;;15.39;64.55
80749;BME280;70145;53.746;9.970;2023-08-01T07:45:57;99198.69;;;15.43;64.67
80749;BME280;70145;53.746;9.970;2023-08-01T07:48:22;99202.91;;;15.45;64.45
80749;BME280;70145;53.746;9.970;2023-08-01T07:50:47;99200.81;;;15.47;64.74
80749;BME280;70145;53.746;9.970;2023-08-01T07:53:13;99197.06;;;15.48;64.60
80749;BME280;70145;53.746;9.970;2023-08-01T07:55:38;99208.38;;;15.52;64.45
80749;BME280;70145;53.746;9.970;2023-08-01T07:58:03;99187.91;;;15.49;64.84
80749;BME280;70145;53.746;9.970;2023-08-01T08:00:29;99201.31;;;15.57;64.57
80749;BME280;70145;53.746;9.970;2023-08-01T08:02:54;99196.53;;;15.59;64.99
80749;BME280;70145;53.746;9.970;2023-08-01T08:05:19;99194.69;;;15.66;64.81
80749;BME280;70145;53.746;9.970;2023-08-01T08:07:45;99194.09;;;15.71;64.72
80749;BME280;70145;53.746;9.970;2023-08-01T08:10:10;99196.03;;;15.77;64.76
80749;BME280;70145;53.746;9.970;2023-08-01T08:12:35;99201.28;;;15.78;64.56
80749;BME280;70145;53.746;9.970;2023-08-01T08:15:01;99204.22;;;15.83;64.34
80749;BME280;70145;53.746;9.970;2023-08-01T08:17:26;99209.44;;;15.85;64.47
80749;BME280;70145;53.746;9.970;2023-08-01T08:19:51;99206.53;;;15.86;64.17
80749;BME280;70145;53.746;9.970;2023-08-01T08:22:17;99213.41;;;15.82;64.26
80749;BME280;70145;53.746;9.970;2023-08-01T08:24:42;99216.13;;;15.82;64.25
80749;BME280;70145;53.746;9.970;2023-08-01T08:27:07;99208.22;;;15.87;64.28
80749;BME280;70145;53.746;9.970;2023-08-01T08:29:33;99208.25;;;15.94;64.17
80749;BME280;70145;53.746;9.970;2023-08-01T08:31:58;99207.84;;;15.97;64.14
80749;BME280;70145;53.746;9.970;2023-08-01T08:34:23;99206.19;;;16.02;63.82
80749;BME280;70145;53.746;9.970;2023-08-01T08:36:49;99204.53;;;16.01;63.77
80749;BME280;70145;53.746;9.970;2023-08-01T08:39:17;99210.44;;;16.11;63.87
80749;BME280;70145;53.746;9.970;2023-08-01T08:41:48;99210.66;;;16.16;63.68
80749;BME280;70145;53.746;9.970;2023-08-01T08:44:15;99210.44;;;16.18;63.70
80749;BME280;70145;53.746;9.970;2023-08-01T08:46:51;99203.19;;;16.25;63.37
80749;BME280;70145;53.746;9.970;2023-08-01T08:49:18;99200.88;;;16.28;63.59
80749;BME280;70145;53.746;9.970;2023-08-01T08:51:45;99190.47;;;16.38;63.14
80749;BME280;70145;53.746;9.970;2023-08-01T08:54:11;99198.44;;;16.47;63.49
80749;BME280;70145;53.746;9.970;2023-08-01T08:56:38;99199.53;;;16.52;63.18
80749;BME280;70145;53.746;9.970;2023-08-01T08:59:05;99210.22;;;16.54;62.96
80749;BME280;70145;53.746;9.970;2023-08-01T09:01:31;99215.00;;;16.52;62.84
80749;BME280;70145;53.746;9.970;2023-08-01T09:03:57;99211.06;;;16.54;63.04
80749;BME280;70145;53.746;9.970;2023-08-01T09:06:30;99216.91;;;16.58;62.76
80749;BME280;70145;53.746;9.970;2023-08-01T09:09:09;99214.84;;;16.60;62.57
80749;BME280;70145;53.746;9.970;2023-08-01T09:11:45;99218.38;;;16.60;62.83
80749;BME280;70145;53.746;9.970;2023-08-01T09:14:11;99216.50;;;16.54;62.58
80749;BME280;70145;53.746;9.970;2023-08-01T09:16:39;99218.16;;;16.55;62.65
80749;BME280;70145;53.746;9.970;2023-08-01T09:19:05;99216.25;;;16.56;62.40
80749;BME280;70145;53.746;9.970;2023-08-01T09:21:32;99222.75;;;16.55;62.47
80749;BME280;70145;53.746;9.970;2023-08-01T09:24:13;99219.41;;;16.53;62.11
80749;BME280;70145;53.746;9.970;2023-08-01T09:26:39;99219.41;;;16.53;62.18
80749;BME280;70145;53.746;9.970;2023-08-01T09:29:05;99223.78;;;16.54;61.61
80749;BME280;70145;53.746;9.970;2023-08-01T09:31:33;99219.63;;;16.51;61.98
80749;BME280;70145;53.746;9.970;2023-08-01T09:33:59;99218.56;;;16.52;61.94
80749;BME280;70145;53.746;9.970;2023-08-01T09:36:25;99212.28;;;16.52;61.93
80749;BME280;70145;53.746;9.970;2023-08-01T09:38:51;99215.84;;;16.52;61.71
80749;BME280;70145;53.746;9.970;2023-08-01T09:41:18;99212.06;;;16.53;61.62
80749;BME280;70145;53.746;9.970;2023-08-01T09:43:45;99211.88;;;16.55;61.88
80749;BME280;70145;53.746;9.970;2023-08-01T09:46:11;99213.53;;;16.56;61.49
80749;BME280;70145;53.746;9.970;2023-08-01T09:48:36;99200.59;;;16.58;61.63
80749;BME280;70145;53.746;9.970;2023-08-01T09:51:08;99198.31;;;16.61;61.98
80749;BME280;70145;53.746;9.970;2023-08-01T09:53:36;99200.41;;;16.66;62.07
80749;BME280;70145;53.746;9.970;2023-08-01T09:56:11;99190.56;;;16.65;62.32
80749;BME280;70145;53.746;9.970;2023-08-01T09:58:37;99196.84;;;16.72;62.36
80749;BME280;70145;53.746;9.970;2023-08-01T10:01:03;99195.44;;;16.76;63.01
80749;BME280;70145;53.746;9.970;2023-08-01T10:03:29;99191.25;;;16.80;63.34
80749;BME280;70145;53.746;9.970;2023-08-01T10:05:55;99192.09;;;16.87;62.73
80749;BME280;70145;53.746;9.970;2023-08-01T10:08:21;99187.28;;;16.95;62.59
80749;BME280;70145;53.746;9.970;2023-08-01T10:10:47;99194.41;;;17.03;63.13
80749;BME280;70145;53.746;9.970;2023-08-01T10:13:13;99188.13;;;17.09;63.61
80749;BME280;70145;53.746;9.970;2023-08-01T10:15:39;99191.47;;;17.17;63.20
80749;BME280;70145;53.746;9.970;2023-08-01T10:18:05;99195.28;;;17.23;62.27
80749;BME280;70145;53.746;9.970;2023-08-01T10:20:30;99183.56;;;17.29;62.33
80749;BME280;70145;53.746;9.970;2023-08-01T10:22:56;99184.38;;;17.36;62.49
80749;BME280;70145;53.746;9.970;2023-08-01T10:25:23;99181.47;;;17.44;61.87
80749;BME280;70145;53.746;9.970;2023-08-01T10:28:03;99175.16;;;17.50;61.41
80749;BME280;70145;53.746;9.970;2023-08-01T10:30:29;99176.00;;;17.57;61.30
80749;BME280;70145;53.746;9.970;2023-08-01T10:32:56;99177.63;;;17.64;60.98
80749;BME280;70145;53.746;9.970;2023-08-01T10:35:35;99182.03;;;17.72;60.73
80749;BME280;70145;53.746;9.970;2023-08-01T10:38:10;99187.03;;;17.81;60.91
80749;BME280;70145;53.746;9.970;2023-08-01T10:43:01;99187.84;;;17.95;60.55
80749;BME280;70145;53.746;9.970;2023-08-01T10:45:27;99192.44;;;18.01;60.26
80749;BME280;70145;53.746;9.970;2023-08-01T10:47:54;99197.69;;;18.09;59.85
80749;BME280;70145;53.746;9.970;2023-08-01T10:50:19;99203.13;;;18.09;59.25
80749;BME280;70145;53.746;9.970;2023-08-01T10:52:45;99216.75;;;18.09;58.87
80749;BME280;70145;53.746;9.970;2023-08-01T10:55:11;99215.72;;;18.03;58.44
80749;BME280;70145;53.746;9.970;2023-08-01T10:57:48;99252.19;;;17.96;56.81
80749;BME280;70145;53.746;9.970;2023-08-01T11:00:16;99246.53;;;17.97;57.37
80749;BME280;70145;53.746;9.970;2023-08-01T11:02:48;99257.84;;;17.94;57.32
80749;BME280;70145;53.746;9.970;2023-08-01T11:05:13;99258.47;;;17.96;56.94
80749;BME280;70145;53.746;9.970;2023-08-01T11:07:39;99254.28;;;17.94;56.18
80749;BME280;70145;53.746;9.970;2023-08-01T11:10:12;99237.47;;;17.90;57.03
80749;BME280;70145;53.746;9.970;2023-08-01T11:12:39;99259.91;;;17.92;57.20
80749;BME280;70145;53.746;9.970;2023-08-01T11:15:07;99261.78;;;17.92;57.36
80749;BME280;70145;53.746;9.970;2023-08-01T11:17:35;99248.38;;;17.90;57.33
80749;BME280;70145;53.746;9.970;2023-08-01T11:20:03;99250.28;;;17.90;57.16
80749;BME280;70145;53.746;9.970;2023-08-01T11:22:29;99243.19;;;17.89;57.14
80749;BME280;70145;53.746;9.970;2023-08-01T11:24:55;99260.53;;;17.88;57.23
80749;BME280;70145;53.746;9.970;2023-08-01T11:27:20;99266.84;;;17.82;57.12
80749;BME280;70145;53.746;9.970;2023-08-01T11:29:46;99266.44;;;17.72;57.16
80749;BME280;70145;53.746;9.970;2023-08-01T11:32:11;99262.03;;;17.64;57.22
80749;BME280;70145;53.746;9.970;2023-08-01T11:34:41;99266.25;;;17.54;56.59
80749;BME280;70145;53.746;9.970;2023-08-01T11:37:10;99258.69;;;17.43;56.46
80749;BME280;70145;53.746;9.970;2023-08-01T11:39:35;99265.59;;;17.39;56.31
80749;BME280;70145;53.746;9.970;2023-08-01T11:42:01;99266.44;;;17.33;56.47
80749;BME280;70145;53.746;9.970;2023-08-01T11:44:26;99262.47;;;17.29;56.29
80749;BME280;70145;53.746;9.970;2023-08-01T11:46:52;99262.22;;;17.24;56.18
80749;BME280;70145;53.746;9.970;2023-08-01T11:49:17;99259.94;;;17.21;56.05
80749;BME280;70145;53.746;9.970;2023-08-01T11:51:44;99263.06;;;17.18;56.43
80749;BME280;70145;53.746;9.970;2023-08-01T11:54:10;99260.09;;;17.13;56.79
80749;BME280;70145;53.746;9.970;2023-08-01T11:56:37;99271.84;;;17.13;56.47
80749;BME280;70145;53.746;9.970;2023-08-01T12:01:43;99253.41;;;17.15;56.98
80749;BME280;70145;53.746;9.970;2023-08-01T12:04:09;99263.88;;;17.18;57.64
80749;BME280;70145;53.746;9.970;2023-08-01T12:06:35;99263.28;;;17.23;58.20
80749;BME280;70145;53.746;9.970;2023-08-01T12:09:10;99265.59;;;17.26;57.92
80749;BME280;70145;53.746;9.970;2023-08-01T12:11:36;99275.66;;;17.32;58.53
80749;BME280;70145;53.746;9.970;2023-08-01T12:14:06;99279.41;;;17.37;58.56
80749;BME280;70145;53.746;9.970;2023-08-01T12:16:33;99281.09;;;17.45;58.92
80749;BME280;70145;53.746;9.970;2023-08-01T12:18:58;99282.59;;;17.54;59.37
80749;BME280;70145;53.746;9.970;2023-08-01T12:21:24;99286.97;;;17.61;59.55
80749;BME280;70145;53.746;9.970;2023-08-01T12:23:49;99288.41;;;17.70;59.60
80749;BME280;70145;53.746;9.970;2023-08-01T12:26:15;99295.53;;;17.78;59.75
80749;BME280;70145;53.746;9.970;2023-08-01T12:28:40;99293.66;;;17.85;59.39
80749;BME280;70145;53.746;9.970;2023-08-01T12:31:11;99284.03;;;17.89;59.59
80749;BME280;70145;53.746;9.970;2023-08-01T12:33:40;99287.34;;;17.91;59.56
80749;BME280;70145;53.746;9.970;2023-08-01T12:36:05;99286.97;;;17.94;59.19
80749;BME280;70145;53.746;9.970;2023-08-01T12:38:31;99287.59;;;17.96;59.02
80749;BME280;70145;53.746;9.970;2023-08-01T12:40:56;99292.84;;;17.97;58.47
80749;BME280;70145;53.746;9.970;2023-08-01T12:43:21;99301.84;;;17.98;58.73
80749;BME280;70145;53.746;9.970;2023-08-01T12:45:47;99297.44;;;17.97;58.16
80749;BME280;70145;53.746;9.970;2023-08-01T12:48:13;99310.44;;;17.95;58.32
80749;BME280;70145;53.746;9.970;2023-08-01T12:50:43;99306.88;;;17.94;57.92
80749;BME280;70145;53.746;9.970;2023-08-01T12:53:08;99309.16;;;17.91;57.99
80749;BME280;70145;53.746;9.970;2023-08-01T12:55:35;99312.94;;;17.90;57.94
80749;BME280;70145;53.746;9.970;2023-08-01T12:58:00;99314.41;;;17.86;57.64
80749;BME280;70145;53.746;9.970;2023-08-01T13:00:26;99317.56;;;17.83;57.61
80749;BME280;70145;53.746;9.970;2023-08-01T13:02:51;99304.78;;;17.77;57.60
80749;BME280;70145;53.746;9.970;2023-08-01T13:05:16;99304.75;;;17.70;57.48
80749;BME280;70145;53.746;9.970;2023-08-01T13:07:42;99310.63;;;17.67;57.82
80749;BME280;70145;53.746;9.970;2023-08-01T13:10:07;99308.75;;;17.55;57.51
80749;BME280;70145;53.746;9.970;2023-08-01T13:12:33;99314.59;;;17.52;57.61
80749;BME280;70145;53.746;9.970;2023-08-01T13:14:58;99311.69;;;17.47;57.74
80749;BME280;70145;53.746;9.970;2023-08-01T13:17:23;99312.09;;;17.44;57.42
80749;BME280;70145;53.746;9.970;2023-08-01T13:19:49;99309.59;;;17.42;57.27
80749;BME280;70145;53.746;9.970;2023-08-01T13:22:14;99304.13;;;17.36;57.52
80749;BME280;70145;53.746;9.970;2023-08-01T13:24:39;99310.63;;;17.35;57.38
80749;BME280;70145;53.746;9.970;2023-08-01T13:27:05;99301.19;;;17.31;57.15